Appleton, Idaho
Current Conditions -  °F | °C
As of 11:53 PM on Wednesday 22 Oct 2014 (Local Time) from KJER Reporting Station
Few Clouds Few Clouds  
Wind Chill: 42°   Ceiling: Unl
Heat Index: 48°   Visibility: 10mi
Dew Point: 30°   Wind: 14mph
Humidity: 50%   Direction: 30°NNE
Pressure: 30.07"   Gusts: NA
Location:  42.7238°N, 114.338°W
Report Text: KJER 230553Z AUTO 03012KT 10SM FEW120 09/M01 A3007 RMK AO2 SLP175 T00891011 10139 20089 55004
Loading
Personal Weather Stations






























Interactive Weather Map
Tropical Storm Tracking
New forecast layout! Learn more

10-Day Weather Forecast

Advertisements
Track Severe Weather on mobile